Airfield :
LOGIN :

Register | Disclaimer

   EN    FR    IT 

 










Legend :    VFR   Marginal VFR   IFR   Intensive IFR   Very Intensive IFR
Visi :
Ceiling :
>= 8 km
>= 3000ft
5 to 8 km
1000 to 3000 ft
1500m to 5 km
500 to 1000 ft
800 to 1500m
200 to 500 ft
< 800m
< 200 ft
Symbols :   Thunderstorms  Fog  Heavy snow  Heavy precipitations  Wind > 20 kt
SIGMETs :     Misc.  Thunderstorms  Icing  Turbulence  Mountain Waves  Volcanic Ashes







- Airport Elevation : 400 ft
- IATA code : BNX


LQBK - Banja Luka

CURRENT METAR :
  • 171100Z 03005KT 340V090 9999 FEW035 28/18 Q1015 NOSIG

EXPIRED METARs :
  • 171030Z VRB03KT CAVOK 28/18 Q1015 NOSIG
  • 171000Z VRB05KT CAVOK 27/18 Q1015 NOSIG
  • 170930Z VRB04KT CAVOK 26/18 Q1016 NOSIG
  • 170900Z VRB03KT CAVOK 26/18 Q1016 NOSIG
  • 170830Z VRB03KT CAVOK 24/18 Q1016 NOSIG

TAF TAF LQBK
Valid from the 17 at 06:00 until the 18 at 06:00 UTC


170500Z 1706/1806 06005KT CAVOK TX30/1714Z TN17/1803Z
No reported NOTAMs for that airfield.



MET'MAP, your aeronautical weather chart ! - Copyright ORBIFLY December 2007 - Disclaimer

ORBIFLY MET'MAP TEAM :

Programming & Development : Alexandra Zaïnal
Concept & Development : Baudouin d'Aumeries
Co-Development & Prog : Marc-Olivier Méhu
Technical & hardware support : Manuel Goepfert

Contact : metmap@orbifly.com




SOURCES & CREDITS :

   NOAA